Worthington, Missouri
Current Conditions -  °F | °C
As of 7:30 AM on Friday 19 Dec 2014 (Local Time) from KTVK Reporting Station
Overcast Overcast  
Wind Chill: 27°   Ceiling: 4600
Heat Index: 27°   Visibility: 10mi
Dew Point: 27°   Wind: 3mph
Humidity: 100%   Direction: 90°E
Pressure: 30.27"   Gusts: NA
Location:  40.41°N, 92.69°W
Report Text: KTVK 191330Z AUTO 09003KT 10SM OVC046 M03/M03 A3027 RMK AO2
Loading
Personal Weather Stations






























Interactive Weather Map New forecast layout! Learn more

10-Day Weather Forecast

Advertisements
Track Severe Weather on mobile